Terminal Aerodrome Forecast
Issued by NWS Sterling, VA

Current Version | Previous Version | Graphics & Text | Print | Product List | Glossary On
Versions: 1 2 3 4 5 6 7 8 9 10 11 12 13 14 15 16 17 18 19 20 21 22 23 24 25 26
000
FTUS41 KLWX 300541
TAFIAD
TAF
KIAD 300541Z 3006/3112 18010G15KT P6SM SCT010 BKN050 WS020/22040KT
     FM300900 19009KT 6SM -RA OVC040
     FM301100 20010KT P6SM OVC040
     FM301600 26011G18KT P6SM SCT250
     FM310000 29008KT P6SM FEW050
     FM310800 23005KT P6SM SCT250=

USA.gov is the U.S. government's official web portal to all federal, state and local government web resources and services.